Onaway, Idaho
Current Conditions -  °F | °C
As of 12:53 PM on Sunday 23 Nov 2014 (Local Time) from KPUW Reporting Station
Overcast Overcast  
Wind Chill: 37°   Ceiling: 5000
Heat Index: 45°   Visibility: 10mi
Dew Point: 32°   Wind: 20mph
Humidity: 60%   Direction: 230°SW
Pressure: 30.07"   Gusts: 29mph
Location:  46.9986°N, 116.937°W
Report Text: KPUW 232053Z AUTO 23017G25KT 10SM BKN050 OVC080 07/00 A3007 RMK AO2 SLP198 60000 T00720000 58028
Loading
Personal Weather Stations






























Interactive Weather Map New forecast layout! Learn more

10-Day Weather Forecast

Advertisements
Track Severe Weather on mobile